createdAt,value
2023-01-01T01:09:45.326Z,372.03
2023-01-01T01:15:03.661Z,449.03
2023-01-01T03:39:02.724Z,157.50
2023-01-01T03:55:34.387Z,143.53
2023-01-01T04:16:39.816Z,126.20
2023-01-01T04:21:31.546Z,129.97
2023-01-01T04:26:23.256Z,133.03
2023-01-01T04:31:14.978Z,134.10
2023-01-01T04:36:10.893Z,136.97
2023-01-01T04:41:04.340Z,123.37
2023-01-01T04:46:02.277Z,112.97
2023-01-01T04:51:01.097Z,113.43
2023-01-01T04:55:52.818Z,101.30
2023-01-01T05:00:52.239Z,90.00
2023-01-01T05:05:49.436Z,92.83
2023-01-01T05:10:42.953Z,88.40
2023-01-01T05:15:37.210Z,75.80
2023-01-01T05:20:29.016Z,76.20
2023-01-01T05:25:20.801Z,53.93
2023-01-01T05:30:12.709Z,61.37
2023-01-01T05:35:05.021Z,56.93
2023-01-01T05:39:57.465Z,58.50
2023-01-01T05:44:49.263Z,47.20
2023-01-01T05:49:41.952Z,33.93
2023-01-01T05:54:33.799Z,30.57
2023-01-01T05:59:25.618Z,23.23
2023-01-01T06:04:17.504Z,19.57
2023-01-01T06:09:11.763Z,14.23
2023-01-01T06:14:04.439Z,11.20
2023-01-01T06:18:56.267Z,13.30
2023-01-01T06:23:55.932Z,10.40
2023-01-01T06:28:48.995Z,9.77
2023-01-01T06:33:41.952Z,8.63
2023-01-01T06:38:44.513Z,7.17
2023-01-01T06:43:36.989Z,6.73
2023-01-01T06:48:32.158Z,8.00
2023-01-01T06:53:27.565Z,9.07
2023-01-01T06:58:19.590Z,8.10
2023-01-01T07:03:11.826Z,6.87
2023-01-01T07:08:06.300Z,6.27
2023-01-01T07:12:58.106Z,4.57
2023-01-01T07:17:49.968Z,3.27
2023-01-01T07:22:42.141Z,7.23
2023-01-01T07:27:34.166Z,6.47
2023-01-01T07:32:28.148Z,5.43
2023-01-01T07:37:21.468Z,4.10
2023-01-01T07:42:13.211Z,4.90
2023-01-01T07:47:19.090Z,4.07
2023-01-01T07:52:11.464Z,3.23
2023-01-01T07:57:03.443Z,3.83
2023-01-01T08:01:55.448Z,4.77
2023-01-01T08:06:47.611Z,5.33
2023-01-01T08:11:39.409Z,4.00
2023-01-01T08:16:31.791Z,5.33
2023-01-01T08:21:31.286Z,4.97
2023-01-01T08:26:33.649Z,3.13
2023-01-01T08:31:26.448Z,6.03
2023-01-01T08:36:21.466Z,3.83
2023-01-01T08:41:14.439Z,6.67
2023-01-01T08:46:06.710Z,4.50
2023-01-01T08:51:01.280Z,5.10
2023-01-01T08:56:06.954Z,11.33
2023-01-01T09:00:59.609Z,19.00
2023-01-01T09:05:52.063Z,19.93
2023-01-01T09:10:44.808Z,18.03
2023-01-01T09:15:38.754Z,20.40
2023-01-01T09:20:30.619Z,26.97
2023-01-01T09:25:26.551Z,13.45
2023-01-01T09:30:18.464Z,5.28
2023-01-01T09:35:10.648Z,2.72
2023-01-01T09:40:03.648Z,3.83
2023-01-01T09:45:08.087Z,1.80
2023-01-01T09:50:07.637Z,2.72
2023-01-01T09:55:13.826Z,2.45
2023-01-01T10:00:19.668Z,3.78
2023-01-01T10:10:58.099Z,2.83
2023-01-01T10:16:02.726Z,2.13
2023-01-01T10:21:21.741Z,3.28
2023-01-01T10:31:41.895Z,2.45
2023-01-01T10:36:43.026Z,2.38
2023-01-01T10:41:35.997Z,2.75
2023-01-01T10:46:36.873Z,5.00
2023-01-01T10:51:30.193Z,2.50
2023-01-01T10:56:27.990Z,2.05
2023-01-01T11:01:29.984Z,1.75
2023-01-01T11:16:57.737Z,2.10
2023-01-01T11:21:50.138Z,3.15
2023-01-01T11:26:42.402Z,2.65
2023-01-01T11:31:40.360Z,3.58
2023-01-01T11:41:56.560Z,7.95
2023-01-01T11:46:58.440Z,10.65
2023-01-01T11:51:51.308Z,11.30
2023-01-01T11:56:44.722Z,9.30
2023-01-01T12:02:00.011Z,10.05
2023-01-01T12:12:44.795Z,10.18
2023-01-01T12:18:04.060Z,11.90
2023-01-01T12:22:59.959Z,11.07
2023-01-01T12:28:51.616Z,11.38
2023-01-01T12:34:16.087Z,11.13
2023-01-01T12:39:54.268Z,9.63
2023-01-01T12:45:31.120Z,10.40
2023-01-01T12:50:57.147Z,8.30
2023-01-01T12:56:24.795Z,10.35
2023-01-01T13:01:33.175Z,8.57
2023-01-01T13:06:54.188Z,8.63
2023-01-01T13:22:40.624Z,8.02
2023-01-01T13:27:57.570Z,5.97
2023-01-01T13:33:26.671Z,7.13
2023-01-01T13:39:00.039Z,6.70
2023-01-01T13:44:01.468Z,9.68
2023-01-01T13:49:08.392Z,6.05
2023-01-01T13:54:32.885Z,4.30
2023-01-01T14:00:21.404Z,4.43
2023-01-01T14:26:33.551Z,6.03
2023-01-01T14:31:35.308Z,4.30
2023-01-01T14:41:46.461Z,5.22
2023-01-01T15:08:01.982Z,6.13
2023-01-01T15:12:57.960Z,6.80
2023-01-01T15:17:57.743Z,7.90
2023-01-01T15:22:56.340Z,7.40
2023-01-01T15:38:31.234Z,8.40
2023-01-01T15:43:40.658Z,6.17
2023-01-01T15:48:40.185Z,8.27
2023-01-01T15:59:43.265Z,8.23
2023-01-01T16:14:57.479Z,7.57
2023-01-01T16:19:55.480Z,9.97
2023-01-01T16:24:47.418Z,9.97
2023-01-01T16:29:43.559Z,9.37
2023-01-01T16:34:36.519Z,10.77
2023-01-01T16:39:30.430Z,10.37
2023-01-01T16:49:28.163Z,9.40
2023-01-01T16:54:20.186Z,11.03
2023-01-01T16:59:14.613Z,14.87
2023-01-01T17:09:16.607Z,15.53
2023-01-01T17:14:11.736Z,16.60
2023-01-01T17:19:20.890Z,17.17
2023-01-01T17:24:14.844Z,19.27
2023-01-01T17:29:09.378Z,25.27
2023-01-01T17:34:02.533Z,19.67
2023-01-01T17:38:54.880Z,20.67
2023-01-01T17:43:50.936Z,24.53
2023-01-01T17:48:45.224Z,18.23
2023-01-01T17:53:39.834Z,19.33
2023-01-01T17:58:36.417Z,20.17
2023-01-01T18:08:34.449Z,19.77
2023-01-01T18:13:27.425Z,17.27
2023-01-01T18:18:21.020Z,22.33
2023-01-01T18:23:13.379Z,25.27
2023-01-01T18:28:07.701Z,19.40
2023-01-01T18:33:00.384Z,20.23
2023-01-01T18:38:00.415Z,22.70
2023-01-01T19:03:52.685Z,17.10
2023-01-01T19:08:44.646Z,16.50
2023-01-01T19:13:46.702Z,11.83
2023-01-01T19:39:32.893Z,12.13
2023-01-01T19:54:56.004Z,12.57
2023-01-01T19:59:49.821Z,12.03
2023-01-01T20:04:49.848Z,15.07
2023-01-01T20:14:48.351Z,13.67
2023-01-01T20:19:56.156Z,14.70
2023-01-01T20:24:50.343Z,14.10
2023-01-01T20:29:43.787Z,16.70
2023-01-01T20:39:41.675Z,15.23
2023-01-01T20:44:35.437Z,15.30
2023-01-01T20:54:34.200Z,19.50
2023-01-01T20:59:36.797Z,17.23
2023-01-01T21:09:37.486Z,17.63
2023-01-01T21:41:01.262Z,19.67
2023-01-01T21:46:06.098Z,19.73
2023-01-01T21:51:03.739Z,22.83
2023-01-01T22:01:34.522Z,17.90
2023-01-01T22:06:43.415Z,18.73
2023-01-01T22:11:36.450Z,16.20
2023-01-01T22:16:38.976Z,16.43
2023-01-01T22:21:39.865Z,16.27
2023-01-01T22:26:32.557Z,15.03
2023-01-01T22:31:36.675Z,14.10
2023-01-01T22:36:32.218Z,14.27
2023-01-01T22:41:27.946Z,14.87
2023-01-01T22:46:41.377Z,16.50
2023-01-01T22:51:42.175Z,13.43
2023-01-01T23:01:39.851Z,14.50
2023-01-01T23:11:49.753Z,13.47
2023-01-01T23:16:43.635Z,12.43
2023-01-01T23:21:37.729Z,13.33
2023-01-01T23:26:29.931Z,13.43
2023-01-01T23:31:27.276Z,16.03
2023-01-01T23:41:27.163Z,10.43
2023-01-01T23:46:20.880Z,13.10
2023-01-01T23:56:23.577Z,12.67
